sensor_id;sensor_type;location;lat;lon;timestamp;temperature;humidity
37204;DHT22;23098;48.054;10.636;2022-07-10T00:02:08;15.80;99.90
37204;DHT22;23098;48.054;10.636;2022-07-10T00:04:34;15.80;99.90
37204;DHT22;23098;48.054;10.636;2022-07-10T00:06:59;15.70;99.90
37204;DHT22;23098;48.054;10.636;2022-07-10T00:09:27;15.70;99.90
37204;DHT22;23098;48.054;10.636;2022-07-10T00:11:53;15.60;99.90
37204;DHT22;23098;48.054;10.636;2022-07-10T00:14:19;15.50;99.90
37204;DHT22;23098;48.054;10.636;2022-07-10T00:16:45;15.50;99.90
37204;DHT22;23098;48.054;10.636;2022-07-10T00:19:11;15.50;99.90
37204;DHT22;23098;48.054;10.636;2022-07-10T00:21:36;15.40;99.90
37204;DHT22;23098;48.054;10.636;2022-07-10T00:24:02;15.40;99.90
37204;DHT22;23098;48.054;10.636;2022-07-10T00:26:28;15.40;99.90
37204;DHT22;23098;48.054;10.636;2022-07-10T00:28:54;15.50;99.90
37204;DHT22;23098;48.054;10.636;2022-07-10T00:31:20;15.40;99.90
37204;DHT22;23098;48.054;10.636;2022-07-10T00:33:46;15.40;99.90
37204;DHT22;23098;48.054;10.636;2022-07-10T00:36:11;15.30;99.90
37204;DHT22;23098;48.054;10.636;2022-07-10T00:38:37;15.30;99.90
37204;DHT22;23098;48.054;10.636;2022-07-10T00:41:02;15.30;99.90
37204;DHT22;23098;48.054;10.636;2022-07-10T00:43:28;15.30;99.90
37204;DHT22;23098;48.054;10.636;2022-07-10T00:45:53;15.30;99.90
37204;DHT22;23098;48.054;10.636;2022-07-10T00:48:19;15.20;99.90
37204;DHT22;23098;48.054;10.636;2022-07-10T00:50:45;15.30;99.90
37204;DHT22;23098;48.054;10.636;2022-07-10T00:53:14;15.30;99.90
37204;DHT22;23098;48.054;10.636;2022-07-10T00:55:41;15.20;99.90
37204;DHT22;23098;48.054;10.636;2022-07-10T00:58:08;15.10;99.90
37204;DHT22;23098;48.054;10.636;2022-07-10T01:00:35;15.10;99.90
37204;DHT22;23098;48.054;10.636;2022-07-10T01:03:03;15.10;99.90
37204;DHT22;23098;48.054;10.636;2022-07-10T01:05:29;15.10;99.90
37204;DHT22;23098;48.054;10.636;2022-07-10T01:07:54;15.00;99.90
37204;DHT22;23098;48.054;10.636;2022-07-10T01:10:20;15.10;99.90
37204;DHT22;23098;48.054;10.636;2022-07-10T01:12:46;15.00;99.90
37204;DHT22;23098;48.054;10.636;2022-07-10T01:15:11;15.00;99.90
37204;DHT22;23098;48.054;10.636;2022-07-10T01:17:37;15.00;99.90
37204;DHT22;23098;48.054;10.636;2022-07-10T01:20:07;15.00;99.90
37204;DHT22;23098;48.054;10.636;2022-07-10T01:22:33;15.00;99.90
37204;DHT22;23098;48.054;10.636;2022-07-10T01:24:59;15.00;99.90
37204;DHT22;23098;48.054;10.636;2022-07-10T01:27:25;15.00;99.90
37204;DHT22;23098;48.054;10.636;2022-07-10T01:29:51;15.00;99.90
37204;DHT22;23098;48.054;10.636;2022-07-10T01:32:18;15.00;99.90
37204;DHT22;23098;48.054;10.636;2022-07-10T01:34:43;15.00;99.90
37204;DHT22;23098;48.054;10.636;2022-07-10T01:37:09;15.00;99.90
37204;DHT22;23098;48.054;10.636;2022-07-10T01:39:34;15.00;99.90
37204;DHT22;23098;48.054;10.636;2022-07-10T01:42:00;15.00;99.90
37204;DHT22;23098;48.054;10.636;2022-07-10T01:44:25;15.00;99.90
37204;DHT22;23098;48.054;10.636;2022-07-10T01:46:51;15.00;99.90
37204;DHT22;23098;48.054;10.636;2022-07-10T01:49:17;15.00;99.90
37204;DHT22;23098;48.054;10.636;2022-07-10T01:51:43;15.00;99.90
37204;DHT22;23098;48.054;10.636;2022-07-10T01:54:08;15.00;99.90
37204;DHT22;23098;48.054;10.636;2022-07-10T01:56:34;14.90;99.90
37204;DHT22;23098;48.054;10.636;2022-07-10T01:58:59;14.90;99.90
37204;DHT22;23098;48.054;10.636;2022-07-10T02:01:26;15.00;99.90
37204;DHT22;23098;48.054;10.636;2022-07-10T02:03:52;15.00;99.90
37204;DHT22;23098;48.054;10.636;2022-07-10T02:06:36;15.00;99.90
37204;DHT22;23098;48.054;10.636;2022-07-10T02:09:02;15.00;99.90
37204;DHT22;23098;48.054;10.636;2022-07-10T02:11:27;15.00;99.90
37204;DHT22;23098;48.054;10.636;2022-07-10T02:13:53;15.00;99.90
37204;DHT22;23098;48.054;10.636;2022-07-10T02:16:18;14.90;99.90
37204;DHT22;23098;48.054;10.636;2022-07-10T02:18:44;14.90;99.90
37204;DHT22;23098;48.054;10.636;2022-07-10T02:21:10;14.90;99.90
37204;DHT22;23098;48.054;10.636;2022-07-10T02:23:35;14.90;99.90
37204;DHT22;23098;48.054;10.636;2022-07-10T02:26:01;14.90;99.90
37204;DHT22;23098;48.054;10.636;2022-07-10T02:28:28;14.90;99.90
37204;DHT22;23098;48.054;10.636;2022-07-10T02:30:53;14.90;99.90
37204;DHT22;23098;48.054;10.636;2022-07-10T02:33:19;14.90;99.90
37204;DHT22;23098;48.054;10.636;2022-07-10T02:35:44;14.90;99.90
37204;DHT22;23098;48.054;10.636;2022-07-10T02:38:10;14.80;99.90
37204;DHT22;23098;48.054;10.636;2022-07-10T02:40:36;14.80;99.90
37204;DHT22;23098;48.054;10.636;2022-07-10T02:43:01;14.80;99.90
37204;DHT22;23098;48.054;10.636;2022-07-10T02:45:27;14.80;99.90
37204;DHT22;23098;48.054;10.636;2022-07-10T02:47:52;14.80;99.90
37204;DHT22;23098;48.054;10.636;2022-07-10T02:50:18;14.90;99.90
37204;DHT22;23098;48.054;10.636;2022-07-10T02:52:43;14.90;99.90
37204;DHT22;23098;48.054;10.636;2022-07-10T02:55:09;14.90;99.90
37204;DHT22;23098;48.054;10.636;2022-07-10T02:57:34;14.80;99.90
37204;DHT22;23098;48.054;10.636;2022-07-10T03:00:00;14.80;99.90
37204;DHT22;23098;48.054;10.636;2022-07-10T03:02:25;14.80;99.90
37204;DHT22;23098;48.054;10.636;2022-07-10T03:04:51;14.80;99.90
37204;DHT22;23098;48.054;10.636;2022-07-10T03:07:17;14.70;99.90
37204;DHT22;23098;48.054;10.636;2022-07-10T03:09:42;14.70;99.90
37204;DHT22;23098;48.054;10.636;2022-07-10T03:12:09;14.70;99.90
37204;DHT22;23098;48.054;10.636;2022-07-10T03:14:36;14.70;99.90
37204;DHT22;23098;48.054;10.636;2022-07-10T03:17:02;14.70;99.90
37204;DHT22;23098;48.054;10.636;2022-07-10T03:19:28;14.70;99.90
37204;DHT22;23098;48.054;10.636;2022-07-10T03:21:53;14.60;99.90
37204;DHT22;23098;48.054;10.636;2022-07-10T03:24:19;14.60;99.90
37204;DHT22;23098;48.054;10.636;2022-07-10T03:26:44;14.60;99.90
37204;DHT22;23098;48.054;10.636;2022-07-10T03:29:10;14.60;99.90
37204;DHT22;23098;48.054;10.636;2022-07-10T03:31:35;14.60;99.90
37204;DHT22;23098;48.054;10.636;2022-07-10T03:34:01;14.50;99.90
37204;DHT22;23098;48.054;10.636;2022-07-10T03:36:26;14.50;99.90
37204;DHT22;23098;48.054;10.636;2022-07-10T03:38:53;14.50;99.90
37204;DHT22;23098;48.054;10.636;2022-07-10T03:41:18;14.50;99.90
37204;DHT22;23098;48.054;10.636;2022-07-10T03:43:44;14.50;99.90
37204;DHT22;23098;48.054;10.636;2022-07-10T03:46:09;14.50;99.90
37204;DHT22;23098;48.054;10.636;2022-07-10T03:48:35;14.50;99.90
37204;DHT22;23098;48.054;10.636;2022-07-10T03:51:01;14.50;99.90
37204;DHT22;23098;48.054;10.636;2022-07-10T03:53:26;14.50;99.90
37204;DHT22;23098;48.054;10.636;2022-07-10T03:55:52;14.60;99.90
37204;DHT22;23098;48.054;10.636;2022-07-10T03:58:19;14.70;99.90
37204;DHT22;23098;48.054;10.636;2022-07-10T04:00:45;14.70;99.90
37204;DHT22;23098;48.054;10.636;2022-07-10T04:03:10;14.70;99.90
37204;DHT22;23098;48.054;10.636;2022-07-10T04:05:36;14.80;99.90
37204;DHT22;23098;48.054;10.636;2022-07-10T04:08:03;14.80;99.90
37204;DHT22;23098;48.054;10.636;2022-07-10T04:10:30;14.80;99.90
37204;DHT22;23098;48.054;10.636;2022-07-10T04:12:56;14.90;99.90
37204;DHT22;23098;48.054;10.636;2022-07-10T04:15:22;14.80;99.90
37204;DHT22;23098;48.054;10.636;2022-07-10T04:17:48;14.90;99.90
37204;DHT22;23098;48.054;10.636;2022-07-10T04:20:14;15.00;99.90
37204;DHT22;23098;48.054;10.636;2022-07-10T04:22:40;15.00;99.90
37204;DHT22;23098;48.054;10.636;2022-07-10T04:25:07;15.00;99.90
37204;DHT22;23098;48.054;10.636;2022-07-10T04:27:33;15.00;99.90
37204;DHT22;23098;48.054;10.636;2022-07-10T04:29:58;15.00;99.90
37204;DHT22;23098;48.054;10.636;2022-07-10T04:32:24;15.00;99.90
37204;DHT22;23098;48.054;10.636;2022-07-10T04:34:50;15.00;99.90
37204;DHT22;23098;48.054;10.636;2022-07-10T04:37:15;15.00;99.90
37204;DHT22;23098;48.054;10.636;2022-07-10T04:39:41;15.00;99.90
37204;DHT22;23098;48.054;10.636;2022-07-10T04:42:07;14.90;99.90
37204;DHT22;23098;48.054;10.636;2022-07-10T04:44:34;14.90;99.90
37204;DHT22;23098;48.054;10.636;2022-07-10T04:46:59;14.90;99.90
37204;DHT22;23098;48.054;10.636;2022-07-10T04:49:25;14.90;99.90
37204;DHT22;23098;48.054;10.636;2022-07-10T04:51:51;14.90;99.90
37204;DHT22;23098;48.054;10.636;2022-07-10T04:54:16;15.00;99.90
37204;DHT22;23098;48.054;10.636;2022-07-10T04:56:42;15.00;99.90
37204;DHT22;23098;48.054;10.636;2022-07-10T04:59:08;14.90;99.90
37204;DHT22;23098;48.054;10.636;2022-07-10T05:01:34;15.00;99.90
37204;DHT22;23098;48.054;10.636;2022-07-10T05:04:00;15.00;99.90
37204;DHT22;23098;48.054;10.636;2022-07-10T05:06:26;15.10;99.90
37204;DHT22;23098;48.054;10.636;2022-07-10T05:08:51;15.20;99.90
37204;DHT22;23098;48.054;10.636;2022-07-10T05:11:18;15.30;99.90
37204;DHT22;23098;48.054;10.636;2022-07-10T05:13:44;15.30;99.90
37204;DHT22;23098;48.054;10.636;2022-07-10T05:16:11;15.20;99.90
37204;DHT22;23098;48.054;10.636;2022-07-10T05:18:39;15.10;99.90
37204;DHT22;23098;48.054;10.636;2022-07-10T05:21:05;15.10;99.90
37204;DHT22;23098;48.054;10.636;2022-07-10T05:23:31;15.10;99.90
37204;DHT22;23098;48.054;10.636;2022-07-10T05:25:56;15.00;99.90
37204;DHT22;23098;48.054;10.636;2022-07-10T05:28:22;15.00;99.90
37204;DHT22;23098;48.054;10.636;2022-07-10T05:30:47;15.00;99.90
37204;DHT22;23098;48.054;10.636;2022-07-10T05:33:14;15.00;99.90
37204;DHT22;23098;48.054;10.636;2022-07-10T05:35:40;15.10;99.90
37204;DHT22;23098;48.054;10.636;2022-07-10T05:38:06;15.20;99.90
37204;DHT22;23098;48.054;10.636;2022-07-10T05:40:31;15.20;99.90
37204;DHT22;23098;48.054;10.636;2022-07-10T05:42:57;15.20;99.90
37204;DHT22;23098;48.054;10.636;2022-07-10T05:45:23;15.30;99.90
37204;DHT22;23098;48.054;10.636;2022-07-10T05:47:48;15.50;99.90
37204;DHT22;23098;48.054;10.636;2022-07-10T05:50:14;15.50;99.90
37204;DHT22;23098;48.054;10.636;2022-07-10T05:52:40;15.50;99.90
37204;DHT22;23098;48.054;10.636;2022-07-10T05:55:06;15.50;99.90
37204;DHT22;23098;48.054;10.636;2022-07-10T05:57:33;15.50;99.90
37204;DHT22;23098;48.054;10.636;2022-07-10T05:59:58;15.70;99.90
37204;DHT22;23098;48.054;10.636;2022-07-10T06:02:24;15.90;99.90
37204;DHT22;23098;48.054;10.636;2022-07-10T06:04:50;16.30;99.90
37204;DHT22;23098;48.054;10.636;2022-07-10T06:07:16;16.50;99.90
37204;DHT22;23098;48.054;10.636;2022-07-10T06:09:42;16.50;99.90
37204;DHT22;23098;48.054;10.636;2022-07-10T06:12:08;16.40;99.90
37204;DHT22;23098;48.054;10.636;2022-07-10T06:14:34;16.60;99.90
37204;DHT22;23098;48.054;10.636;2022-07-10T06:16:59;16.70;99.90
37204;DHT22;23098;48.054;10.636;2022-07-10T06:19:25;16.70;99.90
37204;DHT22;23098;48.054;10.636;2022-07-10T06:21:50;16.50;99.90
37204;DHT22;23098;48.054;10.636;2022-07-10T06:24:36;17.10;99.90
37204;DHT22;23098;48.054;10.636;2022-07-10T06:27:01;18.10;99.90
37204;DHT22;23098;48.054;10.636;2022-07-10T06:29:27;17.90;99.90
37204;DHT22;23098;48.054;10.636;2022-07-10T06:31:52;17.30;99.90
37204;DHT22;23098;48.054;10.636;2022-07-10T06:34:18;16.90;99.90
37204;DHT22;23098;48.054;10.636;2022-07-10T06:36:44;16.90;99.90
37204;DHT22;23098;48.054;10.636;2022-07-10T06:39:10;16.90;99.90
37204;DHT22;23098;48.054;10.636;2022-07-10T06:41:35;16.90;99.90
37204;DHT22;23098;48.054;10.636;2022-07-10T06:44:01;16.80;99.90
37204;DHT22;23098;48.054;10.636;2022-07-10T06:46:27;16.60;99.90
37204;DHT22;23098;48.054;10.636;2022-07-10T06:48:53;16.40;99.90
37204;DHT22;23098;48.054;10.636;2022-07-10T06:51:18;16.10;99.90
37204;DHT22;23098;48.054;10.636;2022-07-10T06:53:44;15.60;99.90
37204;DHT22;23098;48.054;10.636;2022-07-10T06:56:10;15.40;99.90
37204;DHT22;23098;48.054;10.636;2022-07-10T06:58:36;15.40;99.90
37204;DHT22;23098;48.054;10.636;2022-07-10T07:01:01;15.40;99.90
37204;DHT22;23098;48.054;10.636;2022-07-10T07:03:27;15.50;99.90
37204;DHT22;23098;48.054;10.636;2022-07-10T07:05:52;15.50;99.90
37204;DHT22;23098;48.054;10.636;2022-07-10T07:08:18;15.60;99.90
37204;DHT22;23098;48.054;10.636;2022-07-10T07:10:43;15.50;99.90
37204;DHT22;23098;48.054;10.636;2022-07-10T07:13:09;15.60;99.90
37204;DHT22;23098;48.054;10.636;2022-07-10T07:15:35;15.80;99.90
37204;DHT22;23098;48.054;10.636;2022-07-10T07:18:04;15.80;99.90
37204;DHT22;23098;48.054;10.636;2022-07-10T07:20:41;15.80;99.90
37204;DHT22;23098;48.054;10.636;2022-07-10T07:23:25;16.30;99.90
37204;DHT22;23098;48.054;10.636;2022-07-10T07:25:51;16.60;99.90
37204;DHT22;23098;48.054;10.636;2022-07-10T07:28:18;17.10;99.90
37204;DHT22;23098;48.054;10.636;2022-07-10T07:30:45;17.80;99.90
37204;DHT22;23098;48.054;10.636;2022-07-10T07:33:11;18.20;99.90
37204;DHT22;23098;48.054;10.636;2022-07-10T07:35:37;18.00;99.90
37204;DHT22;23098;48.054;10.636;2022-07-10T07:38:03;18.00;99.90
37204;DHT22;23098;48.054;10.636;2022-07-10T07:40:29;17.90;99.90
37204;DHT22;23098;48.054;10.636;2022-07-10T07:42:55;17.90;99.90
37204;DHT22;23098;48.054;10.636;2022-07-10T07:45:23;17.80;99.90
37204;DHT22;23098;48.054;10.636;2022-07-10T07:50:21;17.80;99.90
37204;DHT22;23098;48.054;10.636;2022-07-10T07:52:48;17.60;99.90
37204;DHT22;23098;48.054;10.636;2022-07-10T07:55:15;17.80;99.90
37204;DHT22;23098;48.054;10.636;2022-07-10T07:57:42;18.10;99.90
37204;DHT22;23098;48.054;10.636;2022-07-10T08:00:08;18.20;99.90
37204;DHT22;23098;48.054;10.636;2022-07-10T08:02:35;18.10;99.90
37204;DHT22;23098;48.054;10.636;2022-07-10T08:05:01;18.20;99.90
37204;DHT22;23098;48.054;10.636;2022-07-10T08:07:54;18.20;99.90
37204;DHT22;23098;48.054;10.636;2022-07-10T08:10:23;18.60;99.90
37204;DHT22;23098;48.054;10.636;2022-07-10T08:12:48;19.10;99.90
37204;DHT22;23098;48.054;10.636;2022-07-10T08:15:16;19.30;99.90
37204;DHT22;23098;48.054;10.636;2022-07-10T08:17:42;19.40;99.90
37204;DHT22;23098;48.054;10.636;2022-07-10T08:20:11;19.10;99.90
37204;DHT22;23098;48.054;10.636;2022-07-10T08:22:37;18.60;99.90
37204;DHT22;23098;48.054;10.636;2022-07-10T08:25:03;18.70;99.90
37204;DHT22;23098;48.054;10.636;2022-07-10T08:27:28;19.10;99.90
37204;DHT22;23098;48.054;10.636;2022-07-10T08:29:54;19.20;99.90
37204;DHT22;23098;48.054;10.636;2022-07-10T08:32:20;19.40;99.90
37204;DHT22;23098;48.054;10.636;2022-07-10T08:34:45;19.90;99.90
37204;DHT22;23098;48.054;10.636;2022-07-10T08:37:11;19.90;99.90
37204;DHT22;23098;48.054;10.636;2022-07-10T08:39:37;20.00;99.90
37204;DHT22;23098;48.054;10.636;2022-07-10T08:42:05;20.20;99.90
37204;DHT22;23098;48.054;10.636;2022-07-10T08:44:31;19.90;99.90
37204;DHT22;23098;48.054;10.636;2022-07-10T08:46:58;20.00;99.90
37204;DHT22;23098;48.054;10.636;2022-07-10T08:49:28;19.80;99.90
37204;DHT22;23098;48.054;10.636;2022-07-10T08:52:05;19.50;99.90
37204;DHT22;23098;48.054;10.636;2022-07-10T08:54:32;19.40;99.90
37204;DHT22;23098;48.054;10.636;2022-07-10T08:57:00;19.80;99.90
37204;DHT22;23098;48.054;10.636;2022-07-10T08:59:27;20.00;99.90
37204;DHT22;23098;48.054;10.636;2022-07-10T09:01:52;20.30;99.90
37204;DHT22;23098;48.054;10.636;2022-07-10T09:04:23;20.60;99.90
37204;DHT22;23098;48.054;10.636;2022-07-10T09:06:51;20.60;99.00
37204;DHT22;23098;48.054;10.636;2022-07-10T09:09:17;20.50;99.00
37204;DHT22;23098;48.054;10.636;2022-07-10T09:11:43;20.10;99.70
37204;DHT22;23098;48.054;10.636;2022-07-10T09:14:10;19.40;99.90
37204;DHT22;23098;48.054;10.636;2022-07-10T09:16:41;19.00;99.90
37204;DHT22;23098;48.054;10.636;2022-07-10T09:21:43;18.00;99.90
37204;DHT22;23098;48.054;10.636;2022-07-10T09:24:08;17.90;99.90
37204;DHT22;23098;48.054;10.636;2022-07-10T09:26:38;18.10;99.90
37204;DHT22;23098;48.054;10.636;2022-07-10T09:29:11;18.50;99.90
37204;DHT22;23098;48.054;10.636;2022-07-10T09:31:53;18.80;99.90
37204;DHT22;23098;48.054;10.636;2022-07-10T09:37:22;18.90;99.90
37204;DHT22;23098;48.054;10.636;2022-07-10T09:39:55;19.10;99.90
37204;DHT22;23098;48.054;10.636;2022-07-10T09:42:32;19.40;99.90
37204;DHT22;23098;48.054;10.636;2022-07-10T09:50:19;19.70;99.90
37204;DHT22;23098;48.054;10.636;2022-07-10T09:52:46;19.90;99.90
37204;DHT22;23098;48.054;10.636;2022-07-10T09:55:13;20.00;99.90
37204;DHT22;23098;48.054;10.636;2022-07-10T09:57:40;20.30;99.90
37204;DHT22;23098;48.054;10.636;2022-07-10T10:00:09;20.50;99.80
37204;DHT22;23098;48.054;10.636;2022-07-10T10:02:35;20.60;98.70
37204;DHT22;23098;48.054;10.636;2022-07-10T10:05:01;19.90;98.60
37204;DHT22;23098;48.054;10.636;2022-07-10T10:07:27;19.40;99.10
37204;DHT22;23098;48.054;10.636;2022-07-10T10:09:53;19.30;99.40
37204;DHT22;23098;48.054;10.636;2022-07-10T10:12:29;19.50;99.50
37204;DHT22;23098;48.054;10.636;2022-07-10T10:14:57;19.70;99.60
37204;DHT22;23098;48.054;10.636;2022-07-10T10:17:26;20.10;99.00
37204;DHT22;23098;48.054;10.636;2022-07-10T10:19:54;20.10;98.50
37204;DHT22;23098;48.054;10.636;2022-07-10T10:22:48;20.40;97.70
37204;DHT22;23098;48.054;10.636;2022-07-10T10:25:16;21.00;97.70
37204;DHT22;23098;48.054;10.636;2022-07-10T10:27:43;20.80;98.20
37204;DHT22;23098;48.054;10.636;2022-07-10T10:30:09;20.10;98.90
37204;DHT22;23098;48.054;10.636;2022-07-10T10:32:40;20.00;99.90
37204;DHT22;23098;48.054;10.636;2022-07-10T10:35:06;20.20;98.40
37204;DHT22;23098;48.054;10.636;2022-07-10T10:37:38;19.90;97.80
37204;DHT22;23098;48.054;10.636;2022-07-10T10:40:08;19.80;97.30
37204;DHT22;23098;48.054;10.636;2022-07-10T10:42:38;19.80;97.70
37204;DHT22;23098;48.054;10.636;2022-07-10T10:48:09;20.20;96.50
37204;DHT22;23098;48.054;10.636;2022-07-10T10:50:42;20.60;96.30
37204;DHT22;23098;48.054;10.636;2022-07-10T10:53:21;20.90;95.30
37204;DHT22;23098;48.054;10.636;2022-07-10T10:58:36;20.40;94.70
37204;DHT22;23098;48.054;10.636;2022-07-10T11:01:06;20.40;95.30
37204;DHT22;23098;48.054;10.636;2022-07-10T11:06:48;20.60;95.80
37204;DHT22;23098;48.054;10.636;2022-07-10T11:09:28;21.00;95.20
37204;DHT22;23098;48.054;10.636;2022-07-10T11:12:05;20.50;95.90
37204;DHT22;23098;48.054;10.636;2022-07-10T11:14:39;20.40;95.10
37204;DHT22;23098;48.054;10.636;2022-07-10T11:17:06;19.90;96.20
37204;DHT22;23098;48.054;10.636;2022-07-10T11:19:33;20.10;95.60
37204;DHT22;23098;48.054;10.636;2022-07-10T11:30:18;22.20;94.10
37204;DHT22;23098;48.054;10.636;2022-07-10T11:32:43;22.60;93.60
37204;DHT22;23098;48.054;10.636;2022-07-10T11:35:12;22.00;92.80
37204;DHT22;23098;48.054;10.636;2022-07-10T11:37:53;21.10;93.00
37204;DHT22;23098;48.054;10.636;2022-07-10T11:40:19;21.20;93.00
37204;DHT22;23098;48.054;10.636;2022-07-10T11:47:48;22.00;92.80
37204;DHT22;23098;48.054;10.636;2022-07-10T11:50:14;22.30;93.40
37204;DHT22;23098;48.054;10.636;2022-07-10T11:52:40;22.50;91.10
37204;DHT22;23098;48.054;10.636;2022-07-10T11:55:16;21.60;92.20
37204;DHT22;23098;48.054;10.636;2022-07-10T11:57:43;20.90;92.70
37204;DHT22;23098;48.054;10.636;2022-07-10T12:00:40;20.40;93.10
37204;DHT22;23098;48.054;10.636;2022-07-10T12:03:21;21.10;94.00
37204;DHT22;23098;48.054;10.636;2022-07-10T12:05:47;21.50;92.70
37204;DHT22;23098;48.054;10.636;2022-07-10T12:08:15;21.60;92.50
37204;DHT22;23098;48.054;10.636;2022-07-10T12:10:41;21.50;92.90
37204;DHT22;23098;48.054;10.636;2022-07-10T12:13:14;21.30;92.80
37204;DHT22;23098;48.054;10.636;2022-07-10T12:15:45;21.30;92.50
37204;DHT22;23098;48.054;10.636;2022-07-10T12:18:21;21.60;92.60
37204;DHT22;23098;48.054;10.636;2022-07-10T12:20:49;22.10;93.00
37204;DHT22;23098;48.054;10.636;2022-07-10T12:23:18;21.80;91.70
37204;DHT22;23098;48.054;10.636;2022-07-10T12:25:47;22.10;91.80
37204;DHT22;23098;48.054;10.636;2022-07-10T12:28:16;22.20;92.00
37204;DHT22;23098;48.054;10.636;2022-07-10T12:30:47;22.00;91.00
37204;DHT22;23098;48.054;10.636;2022-07-10T12:33:22;22.20;92.50
37204;DHT22;23098;48.054;10.636;2022-07-10T12:35:56;22.10;91.20
37204;DHT22;23098;48.054;10.636;2022-07-10T12:38:29;21.50;91.30
37204;DHT22;23098;48.054;10.636;2022-07-10T12:41:12;21.60;91.90
37204;DHT22;23098;48.054;10.636;2022-07-10T12:43:39;22.00;91.60
37204;DHT22;23098;48.054;10.636;2022-07-10T12:46:15;22.30;90.70
37204;DHT22;23098;48.054;10.636;2022-07-10T12:48:43;22.20;90.60
37204;DHT22;23098;48.054;10.636;2022-07-10T12:51:42;22.20;90.60
37204;DHT22;23098;48.054;10.636;2022-07-10T12:54:29;22.40;91.30
37204;DHT22;23098;48.054;10.636;2022-07-10T12:56:58;22.30;90.60
37204;DHT22;23098;48.054;10.636;2022-07-10T12:59:23;22.70;90.70
37204;DHT22;23098;48.054;10.636;2022-07-10T13:01:49;22.30;90.20
37204;DHT22;23098;48.054;10.636;2022-07-10T13:04:23;22.10;90.50
37204;DHT22;23098;48.054;10.636;2022-07-10T13:06:49;22.60;90.40
37204;DHT22;23098;48.054;10.636;2022-07-10T13:09:23;22.20;90.00
37204;DHT22;23098;48.054;10.636;2022-07-10T13:11:50;22.00;90.60
37204;DHT22;23098;48.054;10.636;2022-07-10T13:14:16;21.70;90.20
37204;DHT22;23098;48.054;10.636;2022-07-10T13:16:42;22.10;90.90
37204;DHT22;23098;48.054;10.636;2022-07-10T13:19:07;22.40;90.00
37204;DHT22;23098;48.054;10.636;2022-07-10T13:21:33;22.10;89.00
37204;DHT22;23098;48.054;10.636;2022-07-10T13:23:58;21.80;90.80
37204;DHT22;23098;48.054;10.636;2022-07-10T13:26:24;21.50;90.60
37204;DHT22;23098;48.054;10.636;2022-07-10T13:28:49;22.00;90.60
37204;DHT22;23098;48.054;10.636;2022-07-10T13:31:15;22.50;90.00
37204;DHT22;23098;48.054;10.636;2022-07-10T13:33:40;22.90;90.00
37204;DHT22;23098;48.054;10.636;2022-07-10T13:36:06;23.10;89.10
37204;DHT22;23098;48.054;10.636;2022-07-10T13:38:32;22.70;88.10
37204;DHT22;23098;48.054;10.636;2022-07-10T13:40:59;22.00;89.10
37204;DHT22;23098;48.054;10.636;2022-07-10T13:43:24;21.60;89.90
37204;DHT22;23098;48.054;10.636;2022-07-10T13:45:57;21.70;90.50
37204;DHT22;23098;48.054;10.636;2022-07-10T13:48:23;21.90;90.10
37204;DHT22;23098;48.054;10.636;2022-07-10T13:50:49;21.60;89.90
37204;DHT22;23098;48.054;10.636;2022-07-10T13:53:16;21.70;90.20
37204;DHT22;23098;48.054;10.636;2022-07-10T13:55:42;22.00;90.20
37204;DHT22;23098;48.054;10.636;2022-07-10T13:58:08;22.00;89.80
37204;DHT22;23098;48.054;10.636;2022-07-10T14:00:34;22.20;90.20
37204;DHT22;23098;48.054;10.636;2022-07-10T14:03:00;22.40;90.20
37204;DHT22;23098;48.054;10.636;2022-07-10T14:05:26;21.90;89.50
37204;DHT22;23098;48.054;10.636;2022-07-10T14:07:51;22.00;87.90
37204;DHT22;23098;48.054;10.636;2022-07-10T14:10:17;22.00;88.60
37204;DHT22;23098;48.054;10.636;2022-07-10T14:12:43;22.40;89.60
37204;DHT22;23098;48.054;10.636;2022-07-10T14:15:08;22.90;88.10
37204;DHT22;23098;48.054;10.636;2022-07-10T14:17:34;22.50;86.90
37204;DHT22;23098;48.054;10.636;2022-07-10T14:20:00;22.50;89.10
37204;DHT22;23098;48.054;10.636;2022-07-10T14:22:26;22.50;86.70
37204;DHT22;23098;48.054;10.636;2022-07-10T14:24:51;22.30;87.60
37204;DHT22;23098;48.054;10.636;2022-07-10T14:27:19;22.60;88.30
37204;DHT22;23098;48.054;10.636;2022-07-10T14:29:44;22.90;86.40
37204;DHT22;23098;48.054;10.636;2022-07-10T14:32:10;22.80;86.10
37204;DHT22;23098;48.054;10.636;2022-07-10T14:34:35;23.00;87.20
37204;DHT22;23098;48.054;10.636;2022-07-10T14:37:02;22.90;84.30
37204;DHT22;23098;48.054;10.636;2022-07-10T14:39:28;22.40;85.50
37204;DHT22;23098;48.054;10.636;2022-07-10T14:41:54;22.20;85.20
37204;DHT22;23098;48.054;10.636;2022-07-10T14:44:19;22.50;86.20
37204;DHT22;23098;48.054;10.636;2022-07-10T14:46:45;22.70;87.00
37204;DHT22;23098;48.054;10.636;2022-07-10T14:49:10;22.70;86.90
37204;DHT22;23098;48.054;10.636;2022-07-10T14:51:36;22.50;85.80
37204;DHT22;23098;48.054;10.636;2022-07-10T14:54:02;22.40;86.30
37204;DHT22;23098;48.054;10.636;2022-07-10T14:56:28;22.10;85.80
37204;DHT22;23098;48.054;10.636;2022-07-10T14:58:54;21.80;86.70
37204;DHT22;23098;48.054;10.636;2022-07-10T15:01:19;21.90;87.40
37204;DHT22;23098;48.054;10.636;2022-07-10T15:03:46;22.00;86.30
37204;DHT22;23098;48.054;10.636;2022-07-10T15:06:11;21.70;85.70
37204;DHT22;23098;48.054;10.636;2022-07-10T15:08:37;21.60;86.00
37204;DHT22;23098;48.054;10.636;2022-07-10T15:11:03;21.80;87.30
37204;DHT22;23098;48.054;10.636;2022-07-10T15:13:30;21.70;86.70
37204;DHT22;23098;48.054;10.636;2022-07-10T15:15:56;21.80;86.70
37204;DHT22;23098;48.054;10.636;2022-07-10T15:18:22;21.80;86.30
37204;DHT22;23098;48.054;10.636;2022-07-10T15:20:48;21.60;86.30
37204;DHT22;23098;48.054;10.636;2022-07-10T15:23:14;21.50;86.60
37204;DHT22;23098;48.054;10.636;2022-07-10T15:25:40;21.50;88.60
37204;DHT22;23098;48.054;10.636;2022-07-10T15:28:07;21.80;86.70
37204;DHT22;23098;48.054;10.636;2022-07-10T15:30:33;21.70;86.60
37204;DHT22;23098;48.054;10.636;2022-07-10T15:33:00;21.80;86.00
37204;DHT22;23098;48.054;10.636;2022-07-10T15:35:25;22.20;86.60
37204;DHT22;23098;48.054;10.636;2022-07-10T15:37:51;22.10;85.50
37204;DHT22;23098;48.054;10.636;2022-07-10T15:40:17;22.40;86.50
37204;DHT22;23098;48.054;10.636;2022-07-10T15:42:42;22.10;85.40
37204;DHT22;23098;48.054;10.636;2022-07-10T15:45:08;22.30;85.10
37204;DHT22;23098;48.054;10.636;2022-07-10T15:47:35;22.10;85.20
37204;DHT22;23098;48.054;10.636;2022-07-10T15:50:00;22.50;84.00
37204;DHT22;23098;48.054;10.636;2022-07-10T15:52:26;22.60;83.70